Time;durP1;ratioP1;P1;durP2;ratioP2;P2;SDS_P1;SDS_P2;PMS_P1;PMS_P2;Temp;Humidity;BMP_temperature;BMP_pressure;BME280_temperature;BME280_humidity;BME280_pressure;Samples;Min_cycle;Max_cycle;Signal;HPM_P1;HPM_P2
2024/04/11 00:01:13;;;;;;;;;;;;;;;8.44;90.84;101060.69;5561342;25;19955;-67
2024/04/11 00:03:39;;;;;;;;;;;;;;;8.42;91.38;101067.13;5529502;25;19963;-66
2024/04/11 00:06:04;;;;;;;;;;;;;;;8.37;91.27;101057.75;5561749;25;20261;-67
2024/04/11 00:08:30;;;;;;;;;;;;;;;8.37;90.88;101078.97;5561614;25;19927;-66
2024/04/11 00:10:56;;;;;;;;;;;;;;;8.30;91.34;101071.69;5561220;25;19927;-69
2024/04/11 00:13:22;;;;;;;;;;;;;;;8.25;92.08;101072.13;5528178;25;19959;-68
2024/04/11 00:15:51;;;;;;;;;;;;;;;8.23;91.73;101060.81;5561045;25;19927;-67
2024/04/11 00:18:16;;;;;;;;;;;;;;;8.23;91.34;101081.19;5528419;25;20273;-66
2024/04/11 00:20:42;;;;;;;;;;;;;;;8.19;91.35;101075.34;5561722;25;19927;-69
2024/04/11 00:23:07;;;;;;;;;;;;;;;8.14;91.50;101074.94;5561064;25;19933;-68
2024/04/11 00:25:33;;;;;;;;;;;;;;;8.11;90.94;101056.63;5560835;25;19946;-67
2024/04/11 00:28:00;;;;;;;;;;;;;;;8.08;90.95;101051.59;5560946;25;19927;-68
2024/04/11 00:30:25;;;;;;;;;;;;;;;8.00;91.24;101043.50;5560629;25;19962;-66
2024/04/11 00:32:50;;;;;;;;;;;;;;;8.00;90.89;101054.09;5528076;25;19948;-68
2024/04/11 00:35:18;;;;;;;;;;;;;;;7.95;91.42;101051.88;5561407;25;19958;-66
2024/04/11 00:37:43;;;;;;;;;;;;;;;7.93;91.22;101067.09;5561334;25;19927;-65
2024/04/11 00:40:09;;;;;;;;;;;;;;;7.95;91.41;101064.28;5560552;25;19958;-69
2024/04/11 00:42:35;;;;;;;;;;;;;;;7.92;91.00;101064.56;5561297;25;19995;-67
2024/04/11 00:45:01;;;;;;;;;;;;;;;7.92;91.03;101061.91;5564833;25;19933;-66
2024/04/11 00:47:27;;;;;;;;;;;;;;;7.90;91.10;101066.53;5531611;25;20394;-67
2024/04/11 00:49:52;;;;;;;;;;;;;;;7.85;91.19;101076.72;5565036;25;20262;-68
2024/04/11 00:52:18;;;;;;;;;;;;;;;7.86;91.20;101081.03;5565394;25;19926;-66
2024/04/11 00:54:44;;;;;;;;;;;;;;;7.84;91.52;101080.34;5532836;25;19927;-67
2024/04/11 00:57:10;;;;;;;;;;;;;;;7.85;91.43;101066.94;5564712;25;19959;-69
2024/04/11 00:59:38;;;;;;;;;;;;;;;7.86;90.14;101070.44;5531222;25;20382;-67
2024/04/11 01:02:04;;;;;;;;;;;;;;;7.89;90.00;101081.59;5557472;25;19987;-67
2024/04/11 01:04:33;;;;;;;;;;;;;;;7.87;89.17;101078.25;5527101;25;19955;-69
2024/04/11 01:07:08;;;;;;;;;;;;;;;7.82;89.43;101087.59;5537122;25;19935;-66
2024/04/11 01:09:34;;;;;;;;;;;;;;;7.78;89.40;101101.09;5527574;26;19927;-69
2024/04/11 01:12:00;;;;;;;;;;;;;;;7.75;89.60;101088.13;5535187;25;19939;-67
2024/04/11 01:14:25;;;;;;;;;;;;;;;7.71;89.82;101086.72;5563888;25;19975;-70
2024/04/11 01:16:51;;;;;;;;;;;;;;;7.63;90.57;101097.16;5531215;25;20362;-67
2024/04/11 01:19:16;;;;;;;;;;;;;;;7.60;90.52;101102.75;5564117;25;20450;-66
2024/04/11 01:21:42;;;;;;;;;;;;;;;7.59;89.93;101101.06;5564757;25;19927;-69
2024/04/11 01:24:07;;;;;;;;;;;;;;;7.58;90.28;101102.03;5565519;25;19926;-67
2024/04/11 01:26:35;;;;;;;;;;;;;;;7.55;90.36;101115.56;5563556;25;19975;-69
2024/04/11 01:29:01;;;;;;;;;;;;;;;7.56;90.49;101119.06;5564098;25;19935;-67
2024/04/11 01:31:26;;;;;;;;;;;;;;;7.51;90.15;101127.38;5530739;25;19931;-68
2024/04/11 01:33:51;;;;;;;;;;;;;;;7.51;90.06;101122.09;5531115;25;20355;-66
2024/04/11 01:36:18;;;;;;;;;;;;;;;7.56;89.50;101127.84;5563694;25;20382;-66
2024/04/11 01:38:45;;;;;;;;;;;;;;;7.62;89.52;101124.66;5564679;25;20270;-70
2024/04/11 01:41:10;;;;;;;;;;;;;;;7.65;89.11;101124.38;5564072;25;20367;-68
2024/04/11 01:43:35;;;;;;;;;;;;;;;7.63;88.72;101126.31;5563735;25;19937;-68
2024/04/11 01:46:02;;;;;;;;;;;;;;;7.56;89.49;101119.88;5530660;25;20046;-67
2024/04/11 01:48:28;;;;;;;;;;;;;;;7.53;89.13;101125.47;5563642;25;19935;-68
2024/04/11 01:50:53;;;;;;;;;;;;;;;7.48;89.49;101111.75;5563595;25;19926;-68
2024/04/11 01:53:18;;;;;;;;;;;;;;;7.44;89.66;101126.25;5564074;25;19927;-67
2024/04/11 01:55:44;;;;;;;;;;;;;;;7.43;88.99;101124.56;5563708;25;19926;-66
2024/04/11 01:58:10;;;;;;;;;;;;;;;7.46;89.02;101134.91;5563423;25;19927;-68
2024/04/11 02:00:36;;;;;;;;;;;;;;;7.39;89.44;101128.47;5563232;25;19931;-69
2024/04/11 02:03:04;;;;;;;;;;;;;;;7.34;89.91;101135.97;5563477;25;19938;-67
2024/04/11 02:05:34;;;;;;;;;;;;;;;7.25;89.57;101123.53;5562987;25;19954;-67
2024/04/11 02:08:01;;;;;;;;;;;;;;;7.18;89.54;101128.50;5563191;25;20006;-68
2024/04/11 02:10:27;;;;;;;;;;;;;;;7.18;89.22;101139.09;5564095;25;19927;-67
2024/04/11 02:12:52;;;;;;;;;;;;;;;7.19;88.77;101132.81;5563051;25;19927;-66
2024/04/11 02:15:18;;;;;;;;;;;;;;;7.14;88.75;101133.22;5529782;25;19959;-67
2024/04/11 02:17:43;;;;;;;;;;;;;;;7.11;89.08;101156.47;5562903;25;19934;-69
2024/04/11 02:20:32;;;;;;;;;;;;;;;7.15;88.42;101132.25;5535469;25;19931;-68
2024/04/11 02:22:58;;;;;;;;;;;;;;;7.15;87.46;101137.53;5563137;25;19926;-67
2024/04/11 02:25:23;;;;;;;;;;;;;;;7.19;87.04;101138.13;5530720;25;19934;-65
2024/04/11 02:27:48;;;;;;;;;;;;;;;7.17;86.99;101155.13;5563235;25;19934;-68
2024/04/11 02:30:14;;;;;;;;;;;;;;;7.15;86.96;101157.91;5562974;25;19994;-67
2024/04/11 02:32:41;;;;;;;;;;;;;;;7.21;86.14;101145.94;5562780;25;19927;-68
2024/04/11 02:35:11;;;;;;;;;;;;;;;7.34;85.67;101146.56;5562656;25;19934;-68
2024/04/11 02:37:38;;;;;;;;;;;;;;;7.43;84.70;101145.75;5563018;25;19933;-67
2024/04/11 02:40:04;;;;;;;;;;;;;;;7.45;84.76;101159.72;5563687;25;20378;-68
2024/04/11 02:42:29;;;;;;;;;;;;;;;7.47;83.97;101165.72;5563474;25;19927;-67
2024/04/11 02:44:56;;;;;;;;;;;;;;;7.50;84.43;101178.72;5530323;25;19927;-69
2024/04/11 02:47:22;;;;;;;;;;;;;;;7.58;83.90;101180.72;5562937;25;20374;-67
2024/04/11 02:49:47;;;;;;;;;;;;;;;7.58;83.32;101192.16;5562872;25;19934;-67
2024/04/11 02:52:13;;;;;;;;;;;;;;;7.60;83.69;101195.50;5562558;25;19994;-65
2024/04/11 02:54:39;;;;;;;;;;;;;;;7.54;83.09;101213.75;5562742;25;19934;-67
2024/04/11 02:57:05;;;;;;;;;;;;;;;7.50;83.58;101213.16;5564181;25;19931;-68
2024/04/11 02:59:30;;;;;;;;;;;;;;;7.46;83.84;101225.00;5529983;25;19927;-66
2024/04/11 03:01:57;;;;;;;;;;;;;;;7.14;83.97;101180.91;5562542;25;19927;-66
2024/04/11 03:04:22;;;;;;;;;;;;;;;7.35;84.08;101210.03;5562632;25;19936;-66
2024/04/11 03:06:49;;;;;;;;;;;;;;;7.39;84.12;101218.56;5561365;25;19959;-68
2024/04/11 03:09:16;;;;;;;;;;;;;;;7.39;83.72;101218.56;5562814;25;19935;-67
2024/04/11 03:11:41;;;;;;;;;;;;;;;7.36;83.72;101224.13;5563724;25;19927;-66
2024/04/11 03:14:07;;;;;;;;;;;;;;;7.33;84.14;101211.97;5563430;25;19937;-69
2024/04/11 03:16:32;;;;;;;;;;;;;;;7.31;84.58;101221.88;5562499;25;19934;-67
2024/04/11 03:18:57;;;;;;;;;;;;;;;7.30;84.65;101237.91;5562359;25;19931;-68
2024/04/11 03:21:23;;;;;;;;;;;;;;;7.36;84.91;101222.31;5562856;25;19933;-68
2024/04/11 03:23:48;;;;;;;;;;;;;;;7.31;84.14;101205.97;5530645;25;20311;-69
2024/04/11 03:26:14;;;;;;;;;;;;;;;7.29;84.75;101209.72;5562965;25;19934;-66
2024/04/11 03:28:40;;;;;;;;;;;;;;;7.21;84.91;101225.41;5564059;25;19935;-68
2024/04/11 03:31:05;;;;;;;;;;;;;;;7.13;84.97;101216.31;5529274;25;19951;-67
2024/04/11 03:33:32;;;;;;;;;;;;;;;7.07;85.08;101226.56;5562015;25;19973;-68
2024/04/11 03:36:09;;;;;;;;;;;;;;;7.09;85.27;101224.63;5561478;25;20282;-68
2024/04/11 03:38:35;;;;;;;;;;;;;;;7.06;85.51;101231.03;5529316;25;19959;-67
2024/04/11 03:41:04;;;;;;;;;;;;;;;7.00;85.59;101228.06;5561817;25;20381;-67
2024/04/11 03:43:33;;;;;;;;;;;;;;;6.93;86.34;101233.00;5529302;25;19933;-68
2024/04/11 03:46:11;;;;;;;;;;;;;;;6.92;86.53;101236.63;5529386;25;19927;-67
2024/04/11 03:48:38;;;;;;;;;;;;;;;7.11;85.97;101242.06;5528506;25;19927;-67
2024/04/11 03:51:22;;;;;;;;;;;;;;;7.41;84.27;101256.34;5528775;25;19927;-68
2024/04/11 03:53:51;;;;;;;;;;;;;;;7.51;83.59;101248.47;5561286;25;19927;-67
2024/04/11 03:56:21;;;;;;;;;;;;;;;7.56;82.87;101263.03;5561417;25;19995;-69
2024/04/11 03:58:47;;;;;;;;;;;;;;;7.25;83.64;101263.94;5562425;25;20002;-68
2024/04/11 04:01:12;;;;;;;;;;;;;;;7.13;84.25;101258.69;5562084;25;19939;-67
2024/04/11 04:03:48;;;;;;;;;;;;;;;7.02;85.04;101264.03;5561809;25;19934;-66
2024/04/11 04:06:13;;;;;;;;;;;;;;;6.96;85.14;101261.06;5561728;25;20373;-66
2024/04/11 04:08:40;;;;;;;;;;;;;;;6.95;85.29;101260.22;5561180;25;19975;-68
2024/04/11 04:11:06;;;;;;;;;;;;;;;6.91;85.13;101266.72;5561113;25;19927;-70
2024/04/11 04:13:37;;;;;;;;;;;;;;;6.83;85.36;101270.00;5561385;25;20341;-68
2024/04/11 04:16:05;;;;;;;;;;;;;;;6.84;85.66;101265.56;5561888;25;19941;-66
2024/04/11 04:18:31;;;;;;;;;;;;;;;6.86;85.08;101274.22;5564700;25;19998;-68
2024/04/11 04:20:57;;;;;;;;;;;;;;;6.90;84.96;101278.28;5565729;25;20370;-69
2024/04/11 04:23:22;;;;;;;;;;;;;;;6.86;84.61;101266.25;5564345;25;19927;-67
2024/04/11 04:25:59;;;;;;;;;;;;;;;6.85;84.65;101269.88;5530285;25;20282;-69
2024/04/11 04:28:30;;;;;;;;;;;;;;;6.86;84.25;101284.78;5563304;25;19926;-70
2024/04/11 04:31:10;;;;;;;;;;;;;;;6.84;83.78;101284.09;5564377;25;19995;-67
2024/04/11 04:33:35;;;;;;;;;;;;;;;6.82;83.97;101280.72;5563595;25;20060;-68
2024/04/11 04:36:02;;;;;;;;;;;;;;;6.81;83.97;101282.53;5562465;25;20335;-67
2024/04/11 04:38:27;;;;;;;;;;;;;;;6.79;84.29;101292.41;5562626;25;20391;-69
2024/04/11 04:40:52;;;;;;;;;;;;;;;6.73;84.59;101287.63;5531180;25;19935;-68
2024/04/11 04:43:18;;;;;;;;;;;;;;;6.77;84.28;101285.56;5563346;25;19942;-70
2024/04/11 04:45:46;;;;;;;;;;;;;;;6.80;83.89;101296.72;5529986;25;19934;-69
2024/04/11 04:48:12;;;;;;;;;;;;;;;6.82;82.93;101301.91;5564378;25;20417;-72
2024/04/11 04:50:37;;;;;;;;;;;;;;;6.84;83.09;101297.31;5563879;25;19935;-71
2024/04/11 04:53:03;;;;;;;;;;;;;;;6.86;82.75;101303.31;5545353;25;19933;-69
2024/04/11 04:55:31;;;;;;;;;;;;;;;6.87;82.40;101312.94;5498927;25;19994;-69
2024/04/11 04:57:57;;;;;;;;;;;;;;;6.89;82.45;101321.59;5548512;25;19933;-68
2024/04/11 05:00:24;;;;;;;;;;;;;;;6.94;82.21;101310.63;5507939;25;20286;-68
2024/04/11 05:02:52;;;;;;;;;;;;;;;6.95;82.05;101320.28;5549040;25;20274;-69
2024/04/11 05:05:18;;;;;;;;;;;;;;;7.00;81.58;101316.28;5544288;25;19928;-70
2024/04/11 05:07:45;;;;;;;;;;;;;;;7.07;81.15;101320.13;5531710;25;19935;-70
2024/04/11 05:10:10;;;;;;;;;;;;;;;7.09;80.05;101323.47;5542753;25;19927;-68
2024/04/11 05:12:43;;;;;;;;;;;;;;;7.13;79.22;101330.19;5466841;25;19999;-68
2024/04/11 05:15:12;;;;;;;;;;;;;;;7.17;78.99;101336.06;5557292;25;19927;-69
2024/04/11 05:17:40;;;;;;;;;;;;;;;7.21;79.29;101331.38;5530862;25;19927;-68
2024/04/11 05:20:17;;;;;;;;;;;;;;;7.22;78.27;101344.47;5539670;25;19960;-69
2024/04/11 05:22:44;;;;;;;;;;;;;;;7.28;79.40;101335.22;5521650;25;19942;-68
2024/04/11 05:25:10;;;;;;;;;;;;;;;7.27;78.82;101346.78;5541515;25;19934;-66
2024/04/11 05:27:37;;;;;;;;;;;;;;;7.32;78.89;101350.72;5545191;25;19943;-68
2024/04/11 05:30:10;;;;;;;;;;;;;;;7.34;78.40;101327.59;5536039;25;19928;-69
2024/04/11 05:32:38;;;;;;;;;;;;;;;7.34;77.98;101350.59;5514707;26;19928;-68
2024/04/11 05:35:09;;;;;;;;;;;;;;;7.31;77.82;101345.56;5537433;25;19939;-68
2024/04/11 05:37:36;;;;;;;;;;;;;;;7.31;78.53;101342.91;5560056;25;19927;-68
2024/04/11 05:40:05;;;;;;;;;;;;;;;7.33;77.70;101340.97;5541925;25;19934;-71
2024/04/11 05:42:31;;;;;;;;;;;;;;;7.35;77.21;101333.72;5560480;25;20005;-68
2024/04/11 05:44:57;;;;;;;;;;;;;;;7.40;77.03;101352.72;5562278;25;20373;-70
2024/04/11 05:47:22;;;;;;;;;;;;;;;7.45;76.86;101350.53;5563385;25;19938;-69
2024/04/11 05:49:47;;;;;;;;;;;;;;;7.48;76.43;101344.97;5564254;25;20377;-67
2024/04/11 05:52:13;;;;;;;;;;;;;;;7.51;76.84;101381.81;5565777;25;19934;-67
2024/04/11 05:54:38;;;;;;;;;;;;;;;7.47;75.99;101344.13;5566593;25;19935;-68
2024/04/11 05:57:04;;;;;;;;;;;;;;;7.49;76.86;101354.59;5563119;25;20397;-70
2024/04/11 05:59:32;;;;;;;;;;;;;;;7.49;75.96;101356.41;5529205;25;20006;-69
2024/04/11 06:01:58;;;;;;;;;;;;;;;7.57;75.96;101370.72;5542623;25;19935;-69
2024/04/11 06:04:25;;;;;;;;;;;;;;;7.57;75.63;101369.88;5526111;26;20050;-70
2024/04/11 06:06:51;;;;;;;;;;;;;;;7.56;75.94;101363.75;5525086;26;20373;-70
2024/04/11 06:09:16;;;;;;;;;;;;;;;7.59;76.60;101352.03;5525653;26;19927;-69
2024/04/11 06:11:41;;;;;;;;;;;;;;;7.59;74.94;101360.84;5496730;26;19976;-72
2024/04/11 06:14:09;;;;;;;;;;;;;;;7.66;75.33;101379.72;5526717;26;19928;-69
2024/04/11 06:16:36;;;;;;;;;;;;;;;7.68;75.02;101373.31;5526899;26;19935;-70
2024/04/11 06:19:02;;;;;;;;;;;;;;;7.72;75.68;101380.03;5526369;26;20418;-71
2024/04/11 06:21:36;;;;;;;;;;;;;;;7.68;74.80;101370.66;5493162;26;19927;-69
2024/04/11 06:24:02;;;;;;;;;;;;;;;7.71;74.95;101375.69;5524613;26;19947;-70
2024/04/11 06:26:28;;;;;;;;;;;;;;;7.72;74.02;101374.72;5523711;26;20257;-69
2024/04/11 06:28:53;;;;;;;;;;;;;;;7.69;73.67;101384.75;5523806;26;19934;-69
2024/04/11 06:31:19;;;;;;;;;;;;;;;7.68;73.52;101383.91;5492008;26;19927;-73
2024/04/11 06:33:44;;;;;;;;;;;;;;;7.71;74.11;101383.66;5524240;26;20535;-70
2024/04/11 06:36:11;;;;;;;;;;;;;;;7.71;73.68;101393.41;5491912;26;19955;-69
2024/04/11 06:38:36;;;;;;;;;;;;;;;7.76;74.15;101402.66;5525013;26;20370;-72
2024/04/11 06:41:02;;;;;;;;;;;;;;;7.80;74.41;101413.00;5491042;26;20051;-69
2024/04/11 06:43:28;;;;;;;;;;;;;;;7.83;72.94;101404.81;5525096;26;19941;-68
2024/04/11 06:45:55;;;;;;;;;;;;;;;7.81;72.62;101406.75;5525769;26;20381;-70
2024/04/11 06:48:21;;;;;;;;;;;;;;;7.80;72.69;101400.59;5525308;26;19927;-70
2024/04/11 06:50:48;;;;;;;;;;;;;;;7.89;73.36;101401.66;5525938;26;19999;-71
2024/04/11 06:53:13;;;;;;;;;;;;;;;7.87;72.71;101430.09;5494029;26;19934;-71
2024/04/11 06:55:38;;;;;;;;;;;;;;;7.81;72.66;101420.84;5525227;26;19951;-69
2024/04/11 06:58:06;;;;;;;;;;;;;;;7.89;73.26;101418.41;5525232;26;20359;-73
2024/04/11 07:00:37;;;;;;;;;;;;;;;7.88;72.34;101411.41;5527194;26;20286;-72
2024/04/11 07:03:13;;;;;;;;;;;;;;;7.92;72.23;101406.69;5525138;26;19927;-73
2024/04/11 07:05:47;;;;;;;;;;;;;;;7.91;72.97;101416.44;5525038;26;19939;-73
2024/04/11 07:08:14;;;;;;;;;;;;;;;7.99;72.89;101407.84;5525928;26;19935;-68
2024/04/11 07:10:46;;;;;;;;;;;;;;;8.01;71.91;101416.50;5525463;26;20666;-71
2024/04/11 07:13:12;;;;;;;;;;;;;;;8.05;71.69;101429.38;5524714;26;19927;-71
2024/04/11 07:15:42;;;;;;;;;;;;;;;8.04;71.64;101416.25;5524884;26;19928;-70
2024/04/11 07:18:14;;;;;;;;;;;;;;;8.07;71.16;101431.91;5492607;26;19935;-70
2024/04/11 07:20:46;;;;;;;;;;;;;;;8.10;71.35;101410.44;5524916;26;20766;-69
2024/04/11 07:23:14;;;;;;;;;;;;;;;8.07;70.21;101416.81;5493307;26;19928;-71
2024/04/11 07:25:40;;;;;;;;;;;;;;;8.17;71.58;101410.75;5525494;26;19931;-71
2024/04/11 07:28:07;;;;;;;;;;;;;;;8.18;71.35;101413.28;5492269;26;19927;-69
2024/04/11 07:30:33;;;;;;;;;;;;;;;8.23;71.16;101419.03;5524775;26;19936;-68
2024/04/11 07:33:01;;;;;;;;;;;;;;;8.28;70.83;101413.31;5524237;26;19928;-70
2024/04/11 07:35:30;;;;;;;;;;;;;;;8.37;70.97;101409.88;5524581;26;20039;-70
2024/04/11 07:37:58;;;;;;;;;;;;;;;8.37;70.38;101421.34;5495332;25;19939;-70
2024/04/11 07:40:32;;;;;;;;;;;;;;;8.37;70.09;101418.69;5549669;25;20374;-71
2024/04/11 07:43:05;;;;;;;;;;;;;;;8.41;69.84;101429.91;5524998;26;20382;-71
2024/04/11 07:45:38;;;;;;;;;;;;;;;8.42;70.11;101425.44;5523774;26;19998;-73
2024/04/11 07:48:04;;;;;;;;;;;;;;;8.40;69.37;101432.69;5523533;26;19958;-72
2024/04/11 07:50:30;;;;;;;;;;;;;;;8.40;70.04;101428.22;5524355;26;19995;-69
2024/04/11 07:52:57;;;;;;;;;;;;;;;8.48;69.50;101436.38;5528262;26;19928;-70
2024/04/11 07:55:22;;;;;;;;;;;;;;;8.50;69.78;101426.47;5528506;26;19962;-71
2024/04/11 07:57:48;;;;;;;;;;;;;;;8.56;69.79;101428.56;5528097;26;20491;-69
2024/04/11 08:00:20;;;;;;;;;;;;;;;8.59;68.51;101438.09;5526563;26;19927;-70
2024/04/11 08:02:48;;;;;;;;;;;;;;;8.64;69.22;101439.34;5493556;26;19968;-71
2024/04/11 08:05:16;;;;;;;;;;;;;;;8.56;68.79;101446.31;5527573;26;19995;-72
2024/04/11 08:07:42;;;;;;;;;;;;;;;8.46;68.98;101448.09;5527462;26;19934;-72
2024/04/11 08:10:08;;;;;;;;;;;;;;;8.52;69.24;101442.25;5527121;26;19927;-71
2024/04/11 08:12:34;;;;;;;;;;;;;;;8.54;67.65;101450.91;5528440;26;19996;-72
2024/04/11 08:14:59;;;;;;;;;;;;;;;8.44;68.19;101442.06;5494303;26;19940;-74
2024/04/11 08:17:26;;;;;;;;;;;;;;;8.52;68.62;101450.22;5526223;26;20424;-71
2024/04/11 08:19:51;;;;;;;;;;;;;;;8.58;68.68;101444.38;5524153;26;19935;-69
2024/04/11 08:22:16;;;;;;;;;;;;;;;8.66;68.47;101447.19;5491942;26;19927;-69
2024/04/11 08:24:43;;;;;;;;;;;;;;;8.73;67.60;101451.00;5523735;26;19927;-69
2024/04/11 08:27:08;;;;;;;;;;;;;;;8.75;67.06;101446.41;5463370;26;19935;-71
2024/04/11 08:29:33;;;;;;;;;;;;;;;8.82;68.02;101459.97;5526610;26;19975;-69
2024/04/11 08:32:00;;;;;;;;;;;;;;;8.87;67.17;101452.44;5527584;26;19927;-69
2024/04/11 08:34:27;;;;;;;;;;;;;;;8.92;67.05;101456.38;5495453;26;19935;-72
2024/04/11 08:36:53;;;;;;;;;;;;;;;8.90;66.69;101444.22;5526865;26;19995;-70
2024/04/11 08:39:18;;;;;;;;;;;;;;;8.91;66.54;101451.19;5526988;26;20235;-72
2024/04/11 08:41:44;;;;;;;;;;;;;;;9.00;66.69;101456.56;5494908;26;20375;-69
2024/04/11 08:44:11;;;;;;;;;;;;;;;9.09;65.85;101446.09;5527652;26;20275;-70
2024/04/11 08:46:37;;;;;;;;;;;;;;;9.13;65.08;101444.84;5526463;26;19935;-71
2024/04/11 08:49:03;;;;;;;;;;;;;;;9.14;65.45;101465.13;5527707;26;19927;-72
2024/04/11 08:51:33;;;;;;;;;;;;;;;9.15;64.77;101445.53;5526390;26;19927;-69
2024/04/11 08:54:02;;;;;;;;;;;;;;;9.18;64.62;101445.25;5526405;26;19935;-69
2024/04/11 08:56:28;;;;;;;;;;;;;;;9.24;64.83;101460.66;5525673;26;20467;-72
2024/04/11 08:58:54;;;;;;;;;;;;;;;9.38;65.48;101457.63;5495719;26;19934;-71
2024/04/11 09:01:20;;;;;;;;;;;;;;;9.44;64.87;101462.38;5526538;26;20335;-71
2024/04/11 09:03:48;;;;;;;;;;;;;;;9.52;64.67;101454.53;5525498;26;20787;-71
2024/04/11 09:06:18;;;;;;;;;;;;;;;9.53;63.28;101458.88;5493921;26;19936;-70
2024/04/11 09:08:44;;;;;;;;;;;;;;;9.53;62.97;101460.69;5541278;26;19935;-71
2024/04/11 09:11:09;;;;;;;;;;;;;;;9.56;63.43;101463.09;5518861;25;19944;-71
2024/04/11 09:13:36;;;;;;;;;;;;;;;9.65;62.86;101459.59;5546254;26;19949;-68
2024/04/11 09:16:04;;;;;;;;;;;;;;;9.61;63.25;101456.38;5504579;26;19956;-70
2024/04/11 09:18:29;;;;;;;;;;;;;;;9.67;63.27;101467.44;5533327;26;20385;-69
2024/04/11 09:21:14;;;;;;;;;;;;;;;9.73;63.38;101467.72;5527831;26;19928;-71
2024/04/11 09:23:47;;;;;;;;;;;;;;;9.77;61.78;101471.78;5526266;26;19927;-69
2024/04/11 09:26:17;;;;;;;;;;;;;;;9.89;62.75;101477.81;5526418;26;19928;-71
2024/04/11 09:28:45;;;;;;;;;;;;;;;9.90;61.94;101485.66;5528137;26;19934;-71
2024/04/11 09:31:11;;;;;;;;;;;;;;;9.99;61.83;101480.44;5528119;26;19934;-70
2024/04/11 09:33:39;;;;;;;;;;;;;;;9.95;61.68;101471.91;5526297;26;20043;-69
2024/04/11 09:36:11;;;;;;;;;;;;;;;9.93;62.21;101473.88;5492937;26;19995;-72
2024/04/11 09:38:41;;;;;;;;;;;;;;;9.94;61.93;101486.19;5527225;26;20511;-71
2024/04/11 09:41:11;;;;;;;;;;;;;;;9.94;62.00;101476.41;5526840;26;19928;-70
2024/04/11 09:43:40;;;;;;;;;;;;;;;9.89;62.10;101499.09;5540326;26;19928;-71
2024/04/11 09:46:17;;;;;;;;;;;;;;;9.90;62.83;101476.81;5550293;25;19927;-70
2024/04/11 09:48:44;;;;;;;;;;;;;;;9.93;61.75;101476.53;5541146;26;19946;-69
2024/04/11 09:51:13;;;;;;;;;;;;;;;10.03;61.12;101487.16;5536246;26;19927;-72
2024/04/11 09:53:39;;;;;;;;;;;;;;;10.10;61.03;101474.97;5533639;26;19999;-71
2024/04/11 09:56:06;;;;;;;;;;;;;;;10.18;60.11;101478.63;5539988;26;19928;-72
2024/04/11 09:58:38;;;;;;;;;;;;;;;10.19;59.93;101474.97;5525696;26;19928;-70
2024/04/11 10:01:20;;;;;;;;;;;;;;;10.22;59.80;101487.19;5528311;26;20264;-72
2024/04/11 10:03:45;;;;;;;;;;;;;;;10.26;59.42;101482.41;5525799;26;19934;-69
2024/04/11 10:06:16;;;;;;;;;;;;;;;10.26;59.36;101485.06;5525463;26;20038;-73
2024/04/11 10:08:48;;;;;;;;;;;;;;;10.29;59.55;101487.44;5524644;26;20020;-69
2024/04/11 10:11:17;;;;;;;;;;;;;;;10.33;58.72;101491.50;5524693;26;20454;-70
2024/04/11 10:13:46;;;;;;;;;;;;;;;10.35;58.66;101486.88;5524606;26;19928;-72
2024/04/11 10:16:29;;;;;;;;;;;;;;;10.38;58.44;101483.91;5525773;26;19951;-72
2024/04/11 10:19:21;;;;;;;;;;;;;;;10.46;58.28;101487.56;5526069;26;19928;-73
2024/04/11 10:21:44;;;;;;;;;;;;;;;10.48;56.87;101482.94;5523519;26;19935;-71
2024/04/11 10:27:17;;;;;;;;;;;;;;;10.44;57.31;101494.03;5492259;26;19927;-73
2024/04/11 10:29:46;;;;;;;;;;;;;;;10.50;56.73;101504.09;5492445;26;20367;-72
2024/04/11 10:32:35;;;;;;;;;;;;;;;10.52;57.08;101491.47;5493971;26;19936;-71
2024/04/11 10:35:02;;;;;;;;;;;;;;;10.50;56.43;101498.75;5492106;26;20511;-69
2024/04/11 10:37:33;;;;;;;;;;;;;;;10.50;56.33;101498.75;5492091;26;20031;-71
2024/04/11 10:40:24;;;;;;;;;;;;;;;10.58;56.68;101512.19;5472054;26;20378;-70
2024/04/11 10:45:34;;;;;;;;;;;;;;;10.55;56.38;101507.16;5524778;26;19934;-68
2024/04/11 10:48:00;;;;;;;;;;;;;;;10.61;56.17;101509.22;5526593;26;19927;-73
2024/04/11 10:50:27;;;;;;;;;;;;;;;10.61;56.46;101506.56;5499230;26;19939;-71
2024/04/11 10:52:52;;;;;;;;;;;;;;;10.64;56.25;101510.75;5495807;26;20003;-69
2024/04/11 10:55:28;;;;;;;;;;;;;;;10.68;55.71;101510.31;5524976;26;19931;-71
2024/04/11 11:06:13;;;;;;;;;;;;;;;10.86;55.65;101511.25;5527750;26;19927;-70
2024/04/11 11:08:42;;;;;;;;;;;;;;;10.84;55.31;101517.72;5528623;26;20045;-71
2024/04/11 11:11:11;;;;;;;;;;;;;;;10.86;56.43;101516.59;5496954;26;19927;-70
2024/04/11 11:13:40;;;;;;;;;;;;;;;10.91;55.47;101509.97;5528572;26;19934;-71
2024/04/11 11:16:07;;;;;;;;;;;;;;;10.94;56.18;101513.19;5494080;26;20006;-71
2024/04/11 11:18:39;;;;;;;;;;;;;;;10.89;54.69;101515.44;5533651;25;19932;-72
2024/04/11 11:21:07;;;;;;;;;;;;;;;10.99;54.52;101536.75;5510961;25;19931;-71
2024/04/11 11:23:34;;;;;;;;;;;;;;;11.00;53.82;101533.94;5538366;25;19935;-70
2024/04/11 11:25:59;;;;;;;;;;;;;;;10.98;53.45;101541.22;5545941;25;20468;-71
2024/04/11 11:28:27;;;;;;;;;;;;;;;10.94;53.36;101539.00;5486970;25;19934;-72
2024/04/11 11:30:56;;;;;;;;;;;;;;;10.88;52.77;101555.56;5562551;25;19934;-69
2024/04/11 11:33:23;;;;;;;;;;;;;;;10.86;52.55;101524.59;5529034;25;19940;-71
2024/04/11 11:35:52;;;;;;;;;;;;;;;10.92;51.98;101525.81;5537379;25;20397;-69
2024/04/11 11:38:22;;;;;;;;;;;;;;;11.00;51.98;101544.59;5537233;25;20462;-71
2024/04/11 11:40:53;;;;;;;;;;;;;;;11.07;50.50;101550.19;5536479;25;19935;-69
2024/04/11 11:43:22;;;;;;;;;;;;;;;10.99;49.47;101534.94;5513910;25;20438;-72
2024/04/11 11:48:31;;;;;;;;;;;;;;;11.13;50.32;101528.25;5521300;25;19934;-71
2024/04/11 11:51:05;;;;;;;;;;;;;;;11.21;50.85;101543.50;5529514;25;20271;-70
2024/04/11 11:53:34;;;;;;;;;;;;;;;11.28;51.08;101521.47;5528181;25;19938;-70
2024/04/11 11:56:05;;;;;;;;;;;;;;;11.27;50.45;101538.41;5463551;25;19927;-70
2024/04/11 11:58:30;;;;;;;;;;;;;;;11.34;50.85;101554.69;5488717;25;19927;-72
2024/04/11 12:00:59;;;;;;;;;;;;;;;11.36;51.41;101534.88;5501110;26;19995;-70
2024/04/11 12:03:25;;;;;;;;;;;;;;;11.36;50.37;101534.88;5561317;25;19927;-71
2024/04/11 12:05:50;;;;;;;;;;;;;;;11.35;50.66;101546.53;5547531;25;19926;-70
2024/04/11 12:08:18;;;;;;;;;;;;;;;11.34;50.97;101549.34;5507327;26;20446;-70
2024/04/11 12:13:34;;;;;;;;;;;;;;;11.18;51.69;101549.97;5543576;25;19935;-73
2024/04/11 12:16:00;;;;;;;;;;;;;;;11.06;51.72;101545.84;5504597;25;19935;-72
2024/04/11 12:18:25;;;;;;;;;;;;;;;10.94;51.60;101555.81;5542996;25;20375;-72
2024/04/11 12:20:57;;;;;;;;;;;;;;;10.98;51.83;101543.03;5537389;25;19927;-71
2024/04/11 12:23:29;;;;;;;;;;;;;;;11.06;51.50;101553.84;5509909;25;20374;-72
2024/04/11 12:25:57;;;;;;;;;;;;;;;11.00;51.07;101546.44;5534648;25;19963;-71
2024/04/11 12:28:23;;;;;;;;;;;;;;;10.89;51.03;101539.44;5539170;25;19926;-70
2024/04/11 12:30:59;;;;;;;;;;;;;;;10.96;50.92;101551.19;5543719;25;19927;-72
2024/04/11 12:33:28;;;;;;;;;;;;;;;11.05;50.76;101541.50;5513997;25;19935;-72
2024/04/11 12:35:58;;;;;;;;;;;;;;;11.12;49.96;101531.91;5547641;25;19933;-71
2024/04/11 12:38:30;;;;;;;;;;;;;;;11.19;49.40;101519.66;5540396;25;20386;-73
2024/04/11 12:40:58;;;;;;;;;;;;;;;11.26;49.04;101523.41;5538276;25;20369;-73
2024/04/11 12:43:28;;;;;;;;;;;;;;;11.34;49.30;101530.69;5507848;25;19959;-71
2024/04/11 12:45:54;;;;;;;;;;;;;;;11.38;49.23;101521.41;5552862;25;19951;-73
2024/04/11 12:48:20;;;;;;;;;;;;;;;11.39;49.46;101512.41;5540170;25;19935;-71
2024/04/11 12:50:50;;;;;;;;;;;;;;;11.45;48.85;101509.97;5544671;25;20294;-72
2024/04/11 12:53:21;;;;;;;;;;;;;;;11.46;49.14;101498.31;5540793;25;20285;-73
2024/04/11 12:55:52;;;;;;;;;;;;;;;11.56;49.26;101513.41;5540900;25;19936;-72
2024/04/11 12:58:19;;;;;;;;;;;;;;;11.64;49.68;101511.69;5548792;25;20332;-70
2024/04/11 13:00:44;;;;;;;;;;;;;;;11.67;49.84;101505.22;5549656;25;19942;-70
2024/04/11 13:03:16;;;;;;;;;;;;;;;11.69;50.59;101503.22;5542128;25;19938;-71
2024/04/11 13:05:51;;;;;;;;;;;;;;;11.64;50.45;101500.19;5511008;26;19938;-71
2024/04/11 13:08:19;;;;;;;;;;;;;;;11.68;51.49;101490.88;5544317;25;19927;-72